sensor_id;sensor_type;location;lat;lon;timestamp;P1;durP1;ratioP1;P2;durP2;ratioP2
20627;SDS011;10473;42.734;24.258;2024-03-07T00:02:08;22.80;;;10.57;;
20627;SDS011;10473;42.734;24.258;2024-03-07T00:04:34;21.90;;;11.10;;
20627;SDS011;10473;42.734;24.258;2024-03-07T00:07:03;24.58;;;11.32;;
20627;SDS011;10473;42.734;24.258;2024-03-07T00:09:31;25.77;;;11.75;;
20627;SDS011;10473;42.734;24.258;2024-03-07T00:11:57;21.70;;;9.93;;
20627;SDS011;10473;42.734;24.258;2024-03-07T00:14:23;24.70;;;12.32;;
20627;SDS011;10473;42.734;24.258;2024-03-07T00:16:55;25.48;;;11.43;;
20627;SDS011;10473;42.734;24.258;2024-03-07T00:19:21;25.35;;;11.32;;
20627;SDS011;10473;42.734;24.258;2024-03-07T00:21:51;24.88;;;12.02;;
20627;SDS011;10473;42.734;24.258;2024-03-07T00:24:17;28.73;;;13.23;;
20627;SDS011;10473;42.734;24.258;2024-03-07T00:26:42;25.52;;;12.77;;
20627;SDS011;10473;42.734;24.258;2024-03-07T00:29:08;25.98;;;12.05;;
20627;SDS011;10473;42.734;24.258;2024-03-07T00:31:33;25.77;;;11.95;;
20627;SDS011;10473;42.734;24.258;2024-03-07T00:33:59;16.13;;;9.32;;
20627;SDS011;10473;42.734;24.258;2024-03-07T00:36:25;20.52;;;10.35;;
20627;SDS011;10473;42.734;24.258;2024-03-07T00:38:51;18.92;;;9.93;;
20627;SDS011;10473;42.734;24.258;2024-03-07T00:41:17;16.58;;;9.77;;
20627;SDS011;10473;42.734;24.258;2024-03-07T00:43:43;18.17;;;10.00;;
20627;SDS011;10473;42.734;24.258;2024-03-07T00:46:08;23.00;;;9.57;;
20627;SDS011;10473;42.734;24.258;2024-03-07T00:48:36;19.00;;;10.15;;
20627;SDS011;10473;42.734;24.258;2024-03-07T00:51:05;21.42;;;9.95;;
20627;SDS011;10473;42.734;24.258;2024-03-07T00:53:30;21.17;;;10.00;;
20627;SDS011;10473;42.734;24.258;2024-03-07T00:55:58;23.52;;;9.80;;
20627;SDS011;10473;42.734;24.258;2024-03-07T00:58:24;21.23;;;10.30;;
20627;SDS011;10473;42.734;24.258;2024-03-07T01:00:50;20.90;;;9.85;;
20627;SDS011;10473;42.734;24.258;2024-03-07T01:03:15;18.50;;;9.27;;
20627;SDS011;10473;42.734;24.258;2024-03-07T01:05:43;19.33;;;9.65;;
20627;SDS011;10473;42.734;24.258;2024-03-07T01:08:09;22.40;;;9.82;;
20627;SDS011;10473;42.734;24.258;2024-03-07T01:10:35;20.35;;;9.68;;
20627;SDS011;10473;42.734;24.258;2024-03-07T01:13:00;19.35;;;10.13;;
20627;SDS011;10473;42.734;24.258;2024-03-07T01:15:27;22.50;;;10.68;;
20627;SDS011;10473;42.734;24.258;2024-03-07T01:17:53;23.90;;;10.65;;
20627;SDS011;10473;42.734;24.258;2024-03-07T01:20:19;18.48;;;9.68;;
20627;SDS011;10473;42.734;24.258;2024-03-07T01:22:46;24.05;;;10.65;;
20627;SDS011;10473;42.734;24.258;2024-03-07T01:25:12;19.38;;;9.38;;
20627;SDS011;10473;42.734;24.258;2024-03-07T01:27:38;18.65;;;10.18;;
20627;SDS011;10473;42.734;24.258;2024-03-07T01:30:04;20.27;;;9.70;;
20627;SDS011;10473;42.734;24.258;2024-03-07T01:32:33;20.60;;;10.23;;
20627;SDS011;10473;42.734;24.258;2024-03-07T01:34:59;19.55;;;10.02;;
20627;SDS011;10473;42.734;24.258;2024-03-07T01:37:24;24.88;;;10.07;;
20627;SDS011;10473;42.734;24.258;2024-03-07T01:39:50;24.85;;;11.18;;
20627;SDS011;10473;42.734;24.258;2024-03-07T01:42:15;20.77;;;10.80;;
20627;SDS011;10473;42.734;24.258;2024-03-07T01:44:41;20.45;;;10.32;;
20627;SDS011;10473;42.734;24.258;2024-03-07T01:47:09;23.42;;;10.32;;
20627;SDS011;10473;42.734;24.258;2024-03-07T01:49:35;18.15;;;9.27;;
20627;SDS011;10473;42.734;24.258;2024-03-07T01:52:01;19.90;;;9.48;;
20627;SDS011;10473;42.734;24.258;2024-03-07T01:54:30;19.92;;;9.32;;
20627;SDS011;10473;42.734;24.258;2024-03-07T01:56:56;19.60;;;11.00;;
20627;SDS011;10473;42.734;24.258;2024-03-07T01:59:22;17.90;;;9.23;;
20627;SDS011;10473;42.734;24.258;2024-03-07T02:01:47;23.38;;;9.70;;
20627;SDS011;10473;42.734;24.258;2024-03-07T02:04:14;19.15;;;10.02;;
20627;SDS011;10473;42.734;24.258;2024-03-07T02:06:39;23.83;;;9.55;;
20627;SDS011;10473;42.734;24.258;2024-03-07T02:09:06;19.20;;;9.98;;
20627;SDS011;10473;42.734;24.258;2024-03-07T02:11:32;18.73;;;9.48;;
20627;SDS011;10473;42.734;24.258;2024-03-07T02:13:58;14.25;;;8.48;;
20627;SDS011;10473;42.734;24.258;2024-03-07T02:16:24;17.35;;;8.80;;
20627;SDS011;10473;42.734;24.258;2024-03-07T02:18:50;17.80;;;8.45;;
20627;SDS011;10473;42.734;24.258;2024-03-07T02:21:16;14.52;;;7.10;;
20627;SDS011;10473;42.734;24.258;2024-03-07T02:23:42;14.43;;;8.00;;
20627;SDS011;10473;42.734;24.258;2024-03-07T02:26:07;18.25;;;9.90;;
20627;SDS011;10473;42.734;24.258;2024-03-07T02:28:33;18.88;;;8.65;;
20627;SDS011;10473;42.734;24.258;2024-03-07T02:31:00;17.05;;;8.65;;
20627;SDS011;10473;42.734;24.258;2024-03-07T02:33:26;13.32;;;7.05;;
20627;SDS011;10473;42.734;24.258;2024-03-07T02:35:52;15.50;;;7.10;;
20627;SDS011;10473;42.734;24.258;2024-03-07T02:38:17;13.85;;;6.95;;
20627;SDS011;10473;42.734;24.258;2024-03-07T02:40:43;13.10;;;6.95;;
20627;SDS011;10473;42.734;24.258;2024-03-07T02:43:09;15.43;;;7.70;;
20627;SDS011;10473;42.734;24.258;2024-03-07T02:45:34;16.08;;;7.55;;
20627;SDS011;10473;42.734;24.258;2024-03-07T02:48:00;12.40;;;7.13;;
20627;SDS011;10473;42.734;24.258;2024-03-07T02:50:25;15.93;;;7.60;;
20627;SDS011;10473;42.734;24.258;2024-03-07T02:52:51;18.92;;;7.40;;
20627;SDS011;10473;42.734;24.258;2024-03-07T02:55:17;16.08;;;7.25;;
20627;SDS011;10473;42.734;24.258;2024-03-07T02:57:44;11.98;;;6.68;;
20627;SDS011;10473;42.734;24.258;2024-03-07T03:00:10;15.10;;;8.18;;
20627;SDS011;10473;42.734;24.258;2024-03-07T03:02:51;10.15;;;6.90;;
20627;SDS011;10473;42.734;24.258;2024-03-07T03:05:17;17.20;;;7.45;;
20627;SDS011;10473;42.734;24.258;2024-03-07T03:07:43;15.77;;;7.18;;
20627;SDS011;10473;42.734;24.258;2024-03-07T03:12:41;15.30;;;8.05;;
20627;SDS011;10473;42.734;24.258;2024-03-07T03:15:06;26.02;;;11.52;;
20627;SDS011;10473;42.734;24.258;2024-03-07T03:17:32;25.40;;;12.15;;
20627;SDS011;10473;42.734;24.258;2024-03-07T03:19:59;26.27;;;11.95;;
20627;SDS011;10473;42.734;24.258;2024-03-07T03:22:25;11.35;;;6.35;;
20627;SDS011;10473;42.734;24.258;2024-03-07T03:24:52;13.55;;;7.15;;
20627;SDS011;10473;42.734;24.258;2024-03-07T03:27:20;13.95;;;7.68;;
20627;SDS011;10473;42.734;24.258;2024-03-07T03:29:46;14.35;;;7.63;;
20627;SDS011;10473;42.734;24.258;2024-03-07T03:32:13;14.63;;;7.60;;
20627;SDS011;10473;42.734;24.258;2024-03-07T03:34:38;10.07;;;5.45;;
20627;SDS011;10473;42.734;24.258;2024-03-07T03:37:04;13.48;;;6.70;;
20627;SDS011;10473;42.734;24.258;2024-03-07T03:39:30;7.97;;;6.20;;
20627;SDS011;10473;42.734;24.258;2024-03-07T03:41:55;9.57;;;5.18;;
20627;SDS011;10473;42.734;24.258;2024-03-07T03:44:21;8.73;;;5.10;;
20627;SDS011;10473;42.734;24.258;2024-03-07T03:46:46;11.55;;;6.05;;
20627;SDS011;10473;42.734;24.258;2024-03-07T03:49:12;23.73;;;10.10;;
20627;SDS011;10473;42.734;24.258;2024-03-07T03:51:37;41.97;;;18.90;;
20627;SDS011;10473;42.734;24.258;2024-03-07T03:54:03;23.40;;;10.85;;
20627;SDS011;10473;42.734;24.258;2024-03-07T03:56:28;12.88;;;7.32;;
20627;SDS011;10473;42.734;24.258;2024-03-07T03:58:54;11.88;;;8.10;;
20627;SDS011;10473;42.734;24.258;2024-03-07T04:01:19;11.43;;;6.25;;
20627;SDS011;10473;42.734;24.258;2024-03-07T04:03:45;14.48;;;6.97;;
20627;SDS011;10473;42.734;24.258;2024-03-07T04:06:13;18.27;;;7.30;;
20627;SDS011;10473;42.734;24.258;2024-03-07T04:08:40;26.45;;;11.65;;
20627;SDS011;10473;42.734;24.258;2024-03-07T04:11:06;19.50;;;8.38;;
20627;SDS011;10473;42.734;24.258;2024-03-07T04:13:35;21.83;;;9.23;;
20627;SDS011;10473;42.734;24.258;2024-03-07T04:16:00;27.27;;;11.35;;
20627;SDS011;10473;42.734;24.258;2024-03-07T04:18:26;18.95;;;8.40;;
20627;SDS011;10473;42.734;24.258;2024-03-07T04:20:51;18.63;;;8.23;;
20627;SDS011;10473;42.734;24.258;2024-03-07T04:23:17;12.55;;;7.28;;
20627;SDS011;10473;42.734;24.258;2024-03-07T04:25:43;9.80;;;5.70;;
20627;SDS011;10473;42.734;24.258;2024-03-07T04:28:09;9.20;;;5.97;;
20627;SDS011;10473;42.734;24.258;2024-03-07T04:30:35;11.90;;;7.07;;
20627;SDS011;10473;42.734;24.258;2024-03-07T04:33:00;7.00;;;5.10;;
20627;SDS011;10473;42.734;24.258;2024-03-07T04:35:26;10.02;;;4.82;;
20627;SDS011;10473;42.734;24.258;2024-03-07T04:37:51;5.50;;;3.55;;
20627;SDS011;10473;42.734;24.258;2024-03-07T04:40:18;5.55;;;3.47;;
20627;SDS011;10473;42.734;24.258;2024-03-07T04:42:44;8.50;;;4.40;;
20627;SDS011;10473;42.734;24.258;2024-03-07T04:45:14;4.07;;;3.67;;
20627;SDS011;10473;42.734;24.258;2024-03-07T04:47:41;5.80;;;3.45;;
20627;SDS011;10473;42.734;24.258;2024-03-07T04:50:08;8.43;;;5.10;;
20627;SDS011;10473;42.734;24.258;2024-03-07T04:52:38;9.00;;;4.47;;
20627;SDS011;10473;42.734;24.258;2024-03-07T04:55:07;5.63;;;4.25;;
20627;SDS011;10473;42.734;24.258;2024-03-07T04:57:37;8.52;;;4.68;;
20627;SDS011;10473;42.734;24.258;2024-03-07T05:00:08;7.82;;;5.07;;
20627;SDS011;10473;42.734;24.258;2024-03-07T05:02:39;6.75;;;5.13;;
20627;SDS011;10473;42.734;24.258;2024-03-07T05:05:08;6.85;;;4.63;;
20627;SDS011;10473;42.734;24.258;2024-03-07T05:07:34;7.22;;;4.90;;
20627;SDS011;10473;42.734;24.258;2024-03-07T05:10:01;12.63;;;5.90;;
20627;SDS011;10473;42.734;24.258;2024-03-07T05:12:31;13.77;;;7.22;;
20627;SDS011;10473;42.734;24.258;2024-03-07T05:14:57;9.15;;;6.13;;
20627;SDS011;10473;42.734;24.258;2024-03-07T05:17:23;10.68;;;7.18;;
20627;SDS011;10473;42.734;24.258;2024-03-07T05:19:48;11.73;;;7.38;;
20627;SDS011;10473;42.734;24.258;2024-03-07T05:22:15;14.13;;;7.30;;
20627;SDS011;10473;42.734;24.258;2024-03-07T05:24:44;11.98;;;6.80;;
20627;SDS011;10473;42.734;24.258;2024-03-07T05:27:10;8.18;;;5.53;;
20627;SDS011;10473;42.734;24.258;2024-03-07T05:29:38;9.10;;;5.68;;
20627;SDS011;10473;42.734;24.258;2024-03-07T05:32:23;10.90;;;6.13;;
20627;SDS011;10473;42.734;24.258;2024-03-07T05:34:52;6.75;;;4.85;;
20627;SDS011;10473;42.734;24.258;2024-03-07T05:37:19;7.40;;;5.20;;
20627;SDS011;10473;42.734;24.258;2024-03-07T05:39:48;18.63;;;7.93;;
20627;SDS011;10473;42.734;24.258;2024-03-07T05:42:15;15.50;;;8.48;;
20627;SDS011;10473;42.734;24.258;2024-03-07T05:44:44;16.60;;;10.05;;
20627;SDS011;10473;42.734;24.258;2024-03-07T05:47:10;14.77;;;8.30;;
20627;SDS011;10473;42.734;24.258;2024-03-07T05:49:38;14.25;;;7.63;;
20627;SDS011;10473;42.734;24.258;2024-03-07T05:52:04;20.23;;;11.10;;
20627;SDS011;10473;42.734;24.258;2024-03-07T05:54:31;27.25;;;13.07;;
20627;SDS011;10473;42.734;24.258;2024-03-07T06:14:43;12.32;;;7.68;;
20627;SDS011;10473;42.734;24.258;2024-03-07T06:17:09;17.30;;;14.38;;
20627;SDS011;10473;42.734;24.258;2024-03-07T06:19:35;27.08;;;18.55;;
20627;SDS011;10473;42.734;24.258;2024-03-07T06:22:01;18.63;;;12.82;;
20627;SDS011;10473;42.734;24.258;2024-03-07T06:24:31;23.83;;;14.85;;
20627;SDS011;10473;42.734;24.258;2024-03-07T06:26:56;17.33;;;11.60;;
20627;SDS011;10473;42.734;24.258;2024-03-07T06:29:25;13.80;;;11.25;;
20627;SDS011;10473;42.734;24.258;2024-03-07T06:31:54;18.27;;;10.93;;
20627;SDS011;10473;42.734;24.258;2024-03-07T06:34:19;14.73;;;10.18;;
20627;SDS011;10473;42.734;24.258;2024-03-07T06:36:45;14.57;;;9.45;;
20627;SDS011;10473;42.734;24.258;2024-03-07T06:39:10;12.05;;;8.93;;
20627;SDS011;10473;42.734;24.258;2024-03-07T06:41:37;12.82;;;8.60;;
20627;SDS011;10473;42.734;24.258;2024-03-07T06:44:03;12.98;;;8.77;;
20627;SDS011;10473;42.734;24.258;2024-03-07T06:46:29;15.50;;;11.98;;
20627;SDS011;10473;42.734;24.258;2024-03-07T06:48:56;14.23;;;10.23;;
20627;SDS011;10473;42.734;24.258;2024-03-07T06:51:22;16.83;;;11.50;;
20627;SDS011;10473;42.734;24.258;2024-03-07T06:53:47;16.13;;;11.82;;
20627;SDS011;10473;42.734;24.258;2024-03-07T06:56:13;16.38;;;11.60;;
20627;SDS011;10473;42.734;24.258;2024-03-07T06:58:40;20.70;;;13.70;;
20627;SDS011;10473;42.734;24.258;2024-03-07T07:01:07;28.50;;;19.98;;
20627;SDS011;10473;42.734;24.258;2024-03-07T07:03:36;18.65;;;12.98;;
20627;SDS011;10473;42.734;24.258;2024-03-07T07:06:03;15.10;;;9.45;;
20627;SDS011;10473;42.734;24.258;2024-03-07T07:08:31;10.02;;;7.35;;
20627;SDS011;10473;42.734;24.258;2024-03-07T07:10:57;12.18;;;9.27;;
20627;SDS011;10473;42.734;24.258;2024-03-07T07:13:23;17.15;;;12.00;;
20627;SDS011;10473;42.734;24.258;2024-03-07T07:15:49;15.65;;;10.77;;
20627;SDS011;10473;42.734;24.258;2024-03-07T07:18:15;27.50;;;15.52;;
20627;SDS011;10473;42.734;24.258;2024-03-07T07:20:40;35.28;;;13.73;;
20627;SDS011;10473;42.734;24.258;2024-03-07T07:23:06;32.78;;;14.50;;
20627;SDS011;10473;42.734;24.258;2024-03-07T07:25:32;31.60;;;16.85;;
20627;SDS011;10473;42.734;24.258;2024-03-07T07:27:57;19.90;;;11.80;;
20627;SDS011;10473;42.734;24.258;2024-03-07T07:30:23;17.95;;;10.07;;
20627;SDS011;10473;42.734;24.258;2024-03-07T07:32:52;6.53;;;4.80;;
20627;SDS011;10473;42.734;24.258;2024-03-07T07:35:19;7.80;;;3.90;;
20627;SDS011;10473;42.734;24.258;2024-03-07T07:37:46;3.90;;;3.38;;
20627;SDS011;10473;42.734;24.258;2024-03-07T07:40:20;8.88;;;5.45;;
20627;SDS011;10473;42.734;24.258;2024-03-07T07:42:48;3.00;;;2.75;;
20627;SDS011;10473;42.734;24.258;2024-03-07T07:45:16;1.50;;;1.40;;
20627;SDS011;10473;42.734;24.258;2024-03-07T07:47:44;6.95;;;5.20;;
20627;SDS011;10473;42.734;24.258;2024-03-07T07:50:14;4.00;;;1.60;;
20627;SDS011;10473;42.734;24.258;2024-03-07T07:52:45;3.25;;;2.90;;
20627;SDS011;10473;42.734;24.258;2024-03-07T07:55:18;7.97;;;4.70;;
20627;SDS011;10473;42.734;24.258;2024-03-07T07:57:45;2.55;;;2.35;;
20627;SDS011;10473;42.734;24.258;2024-03-07T08:00:12;2.33;;;2.15;;
20627;SDS011;10473;42.734;24.258;2024-03-07T08:02:47;5.78;;;5.32;;
20627;SDS011;10473;42.734;24.258;2024-03-07T08:05:34;2.45;;;2.35;;
20627;SDS011;10473;42.734;24.258;2024-03-07T08:08:01;3.08;;;2.97;;
20627;SDS011;10473;42.734;24.258;2024-03-07T08:10:29;11.45;;;5.95;;
20627;SDS011;10473;42.734;24.258;2024-03-07T08:12:56;6.22;;;5.80;;
20627;SDS011;10473;42.734;24.258;2024-03-07T08:15:22;4.80;;;4.55;;
20627;SDS011;10473;42.734;24.258;2024-03-07T08:17:50;4.07;;;3.70;;
20627;SDS011;10473;42.734;24.258;2024-03-07T08:20:17;2.60;;;2.50;;
20627;SDS011;10473;42.734;24.258;2024-03-07T08:22:46;2.35;;;2.25;;
20627;SDS011;10473;42.734;24.258;2024-03-07T08:25:13;2.45;;;2.33;;
20627;SDS011;10473;42.734;24.258;2024-03-07T08:27:40;10.93;;;7.88;;
20627;SDS011;10473;42.734;24.258;2024-03-07T08:30:07;4.03;;;3.65;;
20627;SDS011;10473;42.734;24.258;2024-03-07T08:32:41;2.80;;;2.60;;
20627;SDS011;10473;42.734;24.258;2024-03-07T08:35:09;3.15;;;2.92;;
20627;SDS011;10473;42.734;24.258;2024-03-07T08:37:37;4.30;;;3.60;;
20627;SDS011;10473;42.734;24.258;2024-03-07T08:40:06;6.78;;;6.07;;
20627;SDS011;10473;42.734;24.258;2024-03-07T08:42:39;14.55;;;6.53;;
20627;SDS011;10473;42.734;24.258;2024-03-07T08:45:07;13.80;;;7.15;;
20627;SDS011;10473;42.734;24.258;2024-03-07T08:47:35;16.55;;;8.27;;
20627;SDS011;10473;42.734;24.258;2024-03-07T08:50:02;12.52;;;8.32;;
20627;SDS011;10473;42.734;24.258;2024-03-07T08:52:33;13.52;;;8.70;;
20627;SDS011;10473;42.734;24.258;2024-03-07T08:55:03;15.90;;;8.48;;
20627;SDS011;10473;42.734;24.258;2024-03-07T08:57:29;11.93;;;7.85;;
20627;SDS011;10473;42.734;24.258;2024-03-07T08:59:55;10.05;;;7.43;;
20627;SDS011;10473;42.734;24.258;2024-03-07T09:02:21;8.43;;;7.38;;
20627;SDS011;10473;42.734;24.258;2024-03-07T09:04:47;11.07;;;8.73;;
20627;SDS011;10473;42.734;24.258;2024-03-07T09:07:13;12.15;;;8.60;;
20627;SDS011;10473;42.734;24.258;2024-03-07T09:09:43;12.35;;;9.20;;
20627;SDS011;10473;42.734;24.258;2024-03-07T09:12:10;16.98;;;12.35;;
20627;SDS011;10473;42.734;24.258;2024-03-07T09:14:37;6.60;;;5.25;;
20627;SDS011;10473;42.734;24.258;2024-03-07T09:17:03;13.35;;;9.63;;
20627;SDS011;10473;42.734;24.258;2024-03-07T09:19:32;7.10;;;6.53;;
20627;SDS011;10473;42.734;24.258;2024-03-07T09:21:57;6.25;;;5.65;;
20627;SDS011;10473;42.734;24.258;2024-03-07T09:24:23;5.07;;;4.72;;
20627;SDS011;10473;42.734;24.258;2024-03-07T09:26:49;17.83;;;10.43;;
20627;SDS011;10473;42.734;24.258;2024-03-07T09:29:16;18.02;;;14.20;;
20627;SDS011;10473;42.734;24.258;2024-03-07T09:31:43;7.13;;;6.72;;
20627;SDS011;10473;42.734;24.258;2024-03-07T09:34:09;8.77;;;7.90;;
20627;SDS011;10473;42.734;24.258;2024-03-07T09:36:34;6.18;;;5.68;;
20627;SDS011;10473;42.734;24.258;2024-03-07T09:39:00;4.32;;;3.92;;
20627;SDS011;10473;42.734;24.258;2024-03-07T09:41:26;5.72;;;5.22;;
20627;SDS011;10473;42.734;24.258;2024-03-07T09:43:52;5.78;;;5.32;;
20627;SDS011;10473;42.734;24.258;2024-03-07T09:46:20;5.72;;;4.95;;
20627;SDS011;10473;42.734;24.258;2024-03-07T09:48:49;7.43;;;6.68;;
20627;SDS011;10473;42.734;24.258;2024-03-07T09:51:17;5.47;;;5.07;;
20627;SDS011;10473;42.734;24.258;2024-03-07T09:53:48;4.65;;;4.35;;
20627;SDS011;10473;42.734;24.258;2024-03-07T09:56:16;7.47;;;6.82;;
20627;SDS011;10473;42.734;24.258;2024-03-07T09:58:46;8.00;;;7.13;;
20627;SDS011;10473;42.734;24.258;2024-03-07T10:01:14;8.52;;;7.18;;
20627;SDS011;10473;42.734;24.258;2024-03-07T10:03:42;13.15;;;9.50;;
20627;SDS011;10473;42.734;24.258;2024-03-07T10:06:10;7.45;;;6.75;;
20627;SDS011;10473;42.734;24.258;2024-03-07T10:08:36;7.30;;;6.55;;
20627;SDS011;10473;42.734;24.258;2024-03-07T10:11:02;20.13;;;15.50;;
20627;SDS011;10473;42.734;24.258;2024-03-07T10:13:27;6.13;;;5.05;;
20627;SDS011;10473;42.734;24.258;2024-03-07T10:15:53;4.40;;;4.10;;
20627;SDS011;10473;42.734;24.258;2024-03-07T10:18:25;14.82;;;10.30;;
20627;SDS011;10473;42.734;24.258;2024-03-07T10:20:55;8.23;;;7.53;;
20627;SDS011;10473;42.734;24.258;2024-03-07T10:23:21;3.75;;;3.55;;
20627;SDS011;10473;42.734;24.258;2024-03-07T10:25:49;4.00;;;3.75;;
20627;SDS011;10473;42.734;24.258;2024-03-07T10:28:16;4.07;;;3.78;;
20627;SDS011;10473;42.734;24.258;2024-03-07T10:30:42;5.45;;;4.95;;
20627;SDS011;10473;42.734;24.258;2024-03-07T10:33:11;2.80;;;2.47;;
20627;SDS011;10473;42.734;24.258;2024-03-07T10:35:38;6.25;;;4.68;;
20627;SDS011;10473;42.734;24.258;2024-03-07T10:38:03;3.33;;;3.03;;
20627;SDS011;10473;42.734;24.258;2024-03-07T10:40:32;3.45;;;3.25;;
20627;SDS011;10473;42.734;24.258;2024-03-07T10:43:00;4.20;;;3.90;;
20627;SDS011;10473;42.734;24.258;2024-03-07T10:45:35;3.60;;;3.40;;
20627;SDS011;10473;42.734;24.258;2024-03-07T10:48:13;22.25;;;10.70;;
20627;SDS011;10473;42.734;24.258;2024-03-07T10:53:32;5.55;;;5.15;;
20627;SDS011;10473;42.734;24.258;2024-03-07T10:56:16;4.07;;;3.83;;
20627;SDS011;10473;42.734;24.258;2024-03-07T11:04:45;3.60;;;3.40;;
20627;SDS011;10473;42.734;24.258;2024-03-07T11:07:18;2.65;;;2.45;;
20627;SDS011;10473;42.734;24.258;2024-03-07T11:09:47;3.83;;;3.63;;
20627;SDS011;10473;42.734;24.258;2024-03-07T11:12:16;1.83;;;1.70;;
20627;SDS011;10473;42.734;24.258;2024-03-07T11:14:43;4.13;;;3.83;;
20627;SDS011;10473;42.734;24.258;2024-03-07T11:17:11;3.17;;;2.97;;
20627;SDS011;10473;42.734;24.258;2024-03-07T11:19:38;3.13;;;2.97;;
20627;SDS011;10473;42.734;24.258;2024-03-07T11:22:04;4.55;;;4.15;;
20627;SDS011;10473;42.734;24.258;2024-03-07T11:24:40;16.10;;;9.02;;
20627;SDS011;10473;42.734;24.258;2024-03-07T11:27:08;17.63;;;14.48;;
20627;SDS011;10473;42.734;24.258;2024-03-07T11:32:10;12.00;;;11.00;;
20627;SDS011;10473;42.734;24.258;2024-03-07T11:34:45;28.63;;;21.55;;
20627;SDS011;10473;42.734;24.258;2024-03-07T11:37:17;13.90;;;10.77;;
20627;SDS011;10473;42.734;24.258;2024-03-07T11:39:46;10.52;;;8.38;;
20627;SDS011;10473;42.734;24.258;2024-03-07T11:44:59;5.47;;;4.97;;
20627;SDS011;10473;42.734;24.258;2024-03-07T11:47:25;4.97;;;4.50;;
20627;SDS011;10473;42.734;24.258;2024-03-07T11:49:55;7.03;;;5.93;;
20627;SDS011;10473;42.734;24.258;2024-03-07T11:52:23;7.03;;;6.32;;
20627;SDS011;10473;42.734;24.258;2024-03-07T11:54:49;6.47;;;4.10;;
20627;SDS011;10473;42.734;24.258;2024-03-07T11:57:19;4.68;;;4.03;;
20627;SDS011;10473;42.734;24.258;2024-03-07T11:59:45;8.98;;;6.90;;
20627;SDS011;10473;42.734;24.258;2024-03-07T12:02:17;7.50;;;6.38;;
20627;SDS011;10473;42.734;24.258;2024-03-07T12:04:46;7.53;;;6.47;;
20627;SDS011;10473;42.734;24.258;2024-03-07T12:07:14;6.82;;;5.35;;
20627;SDS011;10473;42.734;24.258;2024-03-07T12:09:43;6.22;;;5.63;;
20627;SDS011;10473;42.734;24.258;2024-03-07T12:12:16;7.85;;;6.53;;
20627;SDS011;10473;42.734;24.258;2024-03-07T12:14:42;5.60;;;4.97;;
20627;SDS011;10473;42.734;24.258;2024-03-07T12:17:08;7.15;;;6.45;;
20627;SDS011;10473;42.734;24.258;2024-03-07T12:19:34;6.57;;;4.82;;
20627;SDS011;10473;42.734;24.258;2024-03-07T12:22:00;9.70;;;7.25;;
20627;SDS011;10473;42.734;24.258;2024-03-07T12:24:27;8.65;;;6.03;;
20627;SDS011;10473;42.734;24.258;2024-03-07T12:26:53;7.43;;;6.45;;
20627;SDS011;10473;42.734;24.258;2024-03-07T12:29:30;7.95;;;7.15;;
20627;SDS011;10473;42.734;24.258;2024-03-07T12:31:56;8.85;;;7.25;;
20627;SDS011;10473;42.734;24.258;2024-03-07T12:34:21;6.90;;;5.18;;
20627;SDS011;10473;42.734;24.258;2024-03-07T12:36:48;8.32;;;7.45;;
20627;SDS011;10473;42.734;24.258;2024-03-07T12:39:22;8.27;;;6.47;;
20627;SDS011;10473;42.734;24.258;2024-03-07T12:41:57;8.38;;;6.65;;
20627;SDS011;10473;42.734;24.258;2024-03-07T12:44:22;7.07;;;5.65;;
20627;SDS011;10473;42.734;24.258;2024-03-07T12:46:48;6.93;;;5.90;;
20627;SDS011;10473;42.734;24.258;2024-03-07T12:49:23;10.38;;;7.90;;
20627;SDS011;10473;42.734;24.258;2024-03-07T12:51:55;7.50;;;6.68;;
20627;SDS011;10473;42.734;24.258;2024-03-07T12:54:22;7.80;;;5.53;;
20627;SDS011;10473;42.734;24.258;2024-03-07T12:56:48;6.25;;;5.03;;
20627;SDS011;10473;42.734;24.258;2024-03-07T12:59:16;9.13;;;6.10;;
20627;SDS011;10473;42.734;24.258;2024-03-07T13:01:42;9.70;;;6.97;;
20627;SDS011;10473;42.734;24.258;2024-03-07T13:04:13;9.68;;;7.25;;
20627;SDS011;10473;42.734;24.258;2024-03-07T13:06:41;7.45;;;6.28;;
20627;SDS011;10473;42.734;24.258;2024-03-07T13:09:11;6.38;;;5.05;;
20627;SDS011;10473;42.734;24.258;2024-03-07T13:11:40;5.20;;;4.75;;
20627;SDS011;10473;42.734;24.258;2024-03-07T13:14:12;5.75;;;5.10;;
20627;SDS011;10473;42.734;24.258;2024-03-07T13:16:39;6.05;;;5.55;;
20627;SDS011;10473;42.734;24.258;2024-03-07T13:19:04;4.07;;;3.80;;
20627;SDS011;10473;42.734;24.258;2024-03-07T13:21:30;3.60;;;3.40;;
20627;SDS011;10473;42.734;24.258;2024-03-07T13:23:57;4.97;;;4.45;;
20627;SDS011;10473;42.734;24.258;2024-03-07T13:26:23;5.10;;;4.63;;
20627;SDS011;10473;42.734;24.258;2024-03-07T13:28:51;4.85;;;4.35;;
20627;SDS011;10473;42.734;24.258;2024-03-07T13:31:19;6.93;;;6.40;;
20627;SDS011;10473;42.734;24.258;2024-03-07T13:33:45;3.15;;;2.95;;
20627;SDS011;10473;42.734;24.258;2024-03-07T13:36:11;4.10;;;3.83;;
20627;SDS011;10473;42.734;24.258;2024-03-07T13:38:39;3.90;;;3.70;;
20627;SDS011;10473;42.734;24.258;2024-03-07T13:41:05;3.83;;;3.63;;
20627;SDS011;10473;42.734;24.258;2024-03-07T13:43:31;4.25;;;4.00;;
20627;SDS011;10473;42.734;24.258;2024-03-07T13:45:59;3.97;;;3.70;;
20627;SDS011;10473;42.734;24.258;2024-03-07T13:48:25;4.60;;;4.20;;
20627;SDS011;10473;42.734;24.258;2024-03-07T13:50:50;3.88;;;3.10;;
20627;SDS011;10473;42.734;24.258;2024-03-07T13:53:18;5.05;;;4.65;;
20627;SDS011;10473;42.734;24.258;2024-03-07T13:58:50;5.93;;;5.53;;
20627;SDS011;10473;42.734;24.258;2024-03-07T14:04:43;5.85;;;5.07;;
20627;SDS011;10473;42.734;24.258;2024-03-07T14:13:45;3.90;;;3.60;;
20627;SDS011;10473;42.734;24.258;2024-03-07T14:19:22;5.05;;;4.60;;
20627;SDS011;10473;42.734;24.258;2024-03-07T14:31:02;4.93;;;4.53;;
20627;SDS011;10473;42.734;24.258;2024-03-07T14:36:47;7.03;;;6.13;;
20627;SDS011;10473;42.734;24.258;2024-03-07T14:39:18;6.28;;;5.15;;
20627;SDS011;10473;42.734;24.258;2024-03-07T14:41:52;5.18;;;4.72;;
20627;SDS011;10473;42.734;24.258;2024-03-07T14:44:28;6.95;;;5.25;;
20627;SDS011;10473;42.734;24.258;2024-03-07T14:46:55;5.85;;;4.90;;
20627;SDS011;10473;42.734;24.258;2024-03-07T14:49:25;8.43;;;6.60;;
20627;SDS011;10473;42.734;24.258;2024-03-07T14:51:51;9.60;;;6.57;;
20627;SDS011;10473;42.734;24.258;2024-03-07T14:54:19;14.50;;;7.68;;
20627;SDS011;10473;42.734;24.258;2024-03-07T14:56:46;5.25;;;4.85;;
20627;SDS011;10473;42.734;24.258;2024-03-07T14:59:12;6.82;;;5.95;;
20627;SDS011;10473;42.734;24.258;2024-03-07T15:01:38;4.47;;;4.18;;
20627;SDS011;10473;42.734;24.258;2024-03-07T15:04:04;12.85;;;8.35;;
20627;SDS011;10473;42.734;24.258;2024-03-07T15:06:32;21.02;;;13.23;;
20627;SDS011;10473;42.734;24.258;2024-03-07T15:08:59;25.83;;;17.33;;
20627;SDS011;10473;42.734;24.258;2024-03-07T15:11:28;16.08;;;11.02;;
20627;SDS011;10473;42.734;24.258;2024-03-07T15:13:59;9.68;;;7.47;;
20627;SDS011;10473;42.734;24.258;2024-03-07T15:16:26;6.93;;;6.22;;
20627;SDS011;10473;42.734;24.258;2024-03-07T15:18:53;9.18;;;8.38;;
20627;SDS011;10473;42.734;24.258;2024-03-07T15:21:19;6.07;;;5.55;;
20627;SDS011;10473;42.734;24.258;2024-03-07T15:23:45;5.13;;;4.72;;
20627;SDS011;10473;42.734;24.258;2024-03-07T15:26:12;20.02;;;17.27;;
20627;SDS011;10473;42.734;24.258;2024-03-07T15:28:40;6.55;;;5.95;;
20627;SDS011;10473;42.734;24.258;2024-03-07T15:31:06;5.78;;;5.38;;